sensor_id;sensor_type;location;lat;lon;timestamp;pressure;altitude;pressure_sealevel;temperature;humidity
69219;BME280;56232;53.384;-2.732;2024-01-30T00:02:16;101368.42;;;8.46;54.23
69219;BME280;56232;53.384;-2.732;2024-01-30T00:04:42;101369.66;;;7.76;54.31
69219;BME280;56232;53.384;-2.732;2024-01-30T00:07:07;101373.85;;;8.25;53.97
69219;BME280;56232;53.384;-2.732;2024-01-30T00:09:33;101378.62;;;8.08;54.11
69219;BME280;56232;53.384;-2.732;2024-01-30T00:11:59;101380.95;;;8.37;54.09
69219;BME280;56232;53.384;-2.732;2024-01-30T00:14:24;101380.52;;;7.57;54.35
69219;BME280;56232;53.384;-2.732;2024-01-30T00:16:50;101383.98;;;8.13;54.25
69219;BME280;56232;53.384;-2.732;2024-01-30T00:19:16;101385.72;;;7.38;54.28
69219;BME280;56232;53.384;-2.732;2024-01-30T00:21:42;101387.65;;;6.73;54.33
69219;BME280;56232;53.384;-2.732;2024-01-30T00:24:07;101390.95;;;7.66;54.20
69219;BME280;56232;53.384;-2.732;2024-01-30T00:26:33;101390.66;;;7.59;54.52
69219;BME280;56232;53.384;-2.732;2024-01-30T00:28:58;101390.72;;;7.10;54.51
69219;BME280;56232;53.384;-2.732;2024-01-30T00:31:24;101394.01;;;7.61;54.66
69219;BME280;56232;53.384;-2.732;2024-01-30T00:33:50;101391.91;;;7.52;54.63
69219;BME280;56232;53.384;-2.732;2024-01-30T00:36:16;101392.15;;;6.26;54.54
69219;BME280;56232;53.384;-2.732;2024-01-30T00:38:41;101393.65;;;7.30;54.71
69219;BME280;56232;53.384;-2.732;2024-01-30T00:41:08;101393.21;;;7.43;54.73
69219;BME280;56232;53.384;-2.732;2024-01-30T00:43:33;101392.13;;;7.45;54.53
69219;BME280;56232;53.384;-2.732;2024-01-30T00:45:59;101392.98;;;7.43;54.35
69219;BME280;56232;53.384;-2.732;2024-01-30T00:48:24;101393.67;;;7.32;54.47
69219;BME280;56232;53.384;-2.732;2024-01-30T00:50:50;101403.37;;;7.59;54.49
69219;BME280;56232;53.384;-2.732;2024-01-30T00:53:16;101403.59;;;7.09;54.62
69219;BME280;56232;53.384;-2.732;2024-01-30T00:55:41;101402.80;;;7.20;54.70
69219;BME280;56232;53.384;-2.732;2024-01-30T00:58:07;101398.97;;;6.81;54.52
69219;BME280;56232;53.384;-2.732;2024-01-30T01:00:33;101399.86;;;7.22;54.63
69219;BME280;56232;53.384;-2.732;2024-01-30T01:02:59;101398.01;;;7.35;54.40
69219;BME280;56232;53.384;-2.732;2024-01-30T01:05:24;101402.50;;;7.27;54.35
69219;BME280;56232;53.384;-2.732;2024-01-30T01:07:50;101406.39;;;7.23;54.14
69219;BME280;56232;53.384;-2.732;2024-01-30T01:10:16;101409.00;;;7.07;54.33
69219;BME280;56232;53.384;-2.732;2024-01-30T01:12:41;101411.45;;;6.96;54.36
69219;BME280;56232;53.384;-2.732;2024-01-30T01:15:08;101412.32;;;7.35;54.81
69219;BME280;56232;53.384;-2.732;2024-01-30T01:17:32;101413.63;;;7.35;54.76
69219;BME280;56232;53.384;-2.732;2024-01-30T01:19:58;101416.37;;;7.30;54.54
69219;BME280;56232;53.384;-2.732;2024-01-30T01:22:24;101422.54;;;6.85;54.63
69219;BME280;56232;53.384;-2.732;2024-01-30T01:24:50;101426.05;;;6.86;54.83
69219;BME280;56232;53.384;-2.732;2024-01-30T01:27:15;101433.78;;;6.93;54.42
69219;BME280;56232;53.384;-2.732;2024-01-30T01:29:41;101432.19;;;6.78;54.39
69219;BME280;56232;53.384;-2.732;2024-01-30T01:32:07;101434.68;;;7.28;54.69
69219;BME280;56232;53.384;-2.732;2024-01-30T01:34:32;101434.39;;;7.17;54.50
69219;BME280;56232;53.384;-2.732;2024-01-30T01:36:58;101438.14;;;6.58;54.52
69219;BME280;56232;53.384;-2.732;2024-01-30T01:39:24;101435.94;;;6.67;54.65
69219;BME280;56232;53.384;-2.732;2024-01-30T01:41:49;101438.57;;;6.70;54.44
69219;BME280;56232;53.384;-2.732;2024-01-30T01:44:15;101442.52;;;7.72;54.21
69219;BME280;56232;53.384;-2.732;2024-01-30T01:46:41;101445.31;;;7.05;54.65
69219;BME280;56232;53.384;-2.732;2024-01-30T01:49:07;101451.77;;;6.67;54.66
69219;BME280;56232;53.384;-2.732;2024-01-30T01:51:35;101452.61;;;7.20;54.47
69219;BME280;56232;53.384;-2.732;2024-01-30T01:54:00;101454.45;;;7.89;54.82
69219;BME280;56232;53.384;-2.732;2024-01-30T01:56:24;101456.46;;;7.10;54.08
69219;BME280;56232;53.384;-2.732;2024-01-30T01:58:50;101457.15;;;7.07;54.03
69219;BME280;56232;53.384;-2.732;2024-01-30T02:01:14;101461.83;;;7.07;53.99
69219;BME280;56232;53.384;-2.732;2024-01-30T02:03:41;101461.82;;;6.92;53.93
69219;BME280;56232;53.384;-2.732;2024-01-30T02:06:06;101466.72;;;6.96;54.43
69219;BME280;56232;53.384;-2.732;2024-01-30T02:08:32;101466.10;;;7.40;54.10
69219;BME280;56232;53.384;-2.732;2024-01-30T02:10:57;101465.08;;;7.30;54.26
69219;BME280;56232;53.384;-2.732;2024-01-30T02:13:22;101469.99;;;6.83;54.25
69219;BME280;56232;53.384;-2.732;2024-01-30T02:15:49;101469.41;;;6.78;54.15
69219;BME280;56232;53.384;-2.732;2024-01-30T02:18:14;101469.20;;;7.26;54.47
69219;BME280;56232;53.384;-2.732;2024-01-30T02:20:40;101475.61;;;6.80;54.52
69219;BME280;56232;53.384;-2.732;2024-01-30T02:23:07;101475.18;;;6.85;54.43
69219;BME280;56232;53.384;-2.732;2024-01-30T02:25:32;101478.10;;;7.36;54.07
69219;BME280;56232;53.384;-2.732;2024-01-30T02:27:57;101475.71;;;7.30;54.25
69219;BME280;56232;53.384;-2.732;2024-01-30T02:30:23;101474.93;;;6.74;54.23
69219;BME280;56232;53.384;-2.732;2024-01-30T02:32:48;101476.31;;;6.88;54.53
69219;BME280;56232;53.384;-2.732;2024-01-30T02:35:14;101475.36;;;7.15;54.00
69219;BME280;56232;53.384;-2.732;2024-01-30T02:37:40;101474.57;;;7.08;54.43
69219;BME280;56232;53.384;-2.732;2024-01-30T02:40:07;101470.78;;;6.77;53.95
69219;BME280;56232;53.384;-2.732;2024-01-30T02:42:31;101474.06;;;7.19;54.28
69219;BME280;56232;53.384;-2.732;2024-01-30T02:44:57;101474.82;;;7.24;53.89
69219;BME280;56232;53.384;-2.732;2024-01-30T02:47:22;101481.08;;;7.08;53.87
69219;BME280;56232;53.384;-2.732;2024-01-30T02:49:48;101483.05;;;7.47;54.02
69219;BME280;56232;53.384;-2.732;2024-01-30T02:52:14;101488.62;;;6.89;54.02
69219;BME280;56232;53.384;-2.732;2024-01-30T02:54:40;101492.07;;;6.86;54.08
69219;BME280;56232;53.384;-2.732;2024-01-30T02:57:05;101494.69;;;6.89;54.05
69219;BME280;56232;53.384;-2.732;2024-01-30T02:59:31;101496.76;;;6.76;54.14
69219;BME280;56232;53.384;-2.732;2024-01-30T03:01:56;101501.11;;;7.33;53.82
69219;BME280;56232;53.384;-2.732;2024-01-30T03:04:22;101506.06;;;7.21;53.91
69219;BME280;56232;53.384;-2.732;2024-01-30T03:06:48;101510.04;;;7.09;54.43
69219;BME280;56232;53.384;-2.732;2024-01-30T03:09:15;101513.42;;;7.15;54.32
69219;BME280;56232;53.384;-2.732;2024-01-30T03:11:40;101513.72;;;6.79;54.30
69219;BME280;56232;53.384;-2.732;2024-01-30T03:14:05;101518.06;;;6.93;54.20
69219;BME280;56232;53.384;-2.732;2024-01-30T03:16:30;101518.66;;;7.44;53.79
69219;BME280;56232;53.384;-2.732;2024-01-30T03:18:56;101519.67;;;6.89;53.72
69219;BME280;56232;53.384;-2.732;2024-01-30T03:21:22;101523.19;;;6.66;53.55
69219;BME280;56232;53.384;-2.732;2024-01-30T03:23:48;101526.93;;;6.45;53.79
69219;BME280;56232;53.384;-2.732;2024-01-30T03:26:13;101530.41;;;6.27;53.71
69219;BME280;56232;53.384;-2.732;2024-01-30T03:28:40;101535.90;;;7.21;53.59
69219;BME280;56232;53.384;-2.732;2024-01-30T03:31:05;101543.14;;;6.36;53.50
69219;BME280;56232;53.384;-2.732;2024-01-30T03:33:30;101547.31;;;6.72;53.91
69219;BME280;56232;53.384;-2.732;2024-01-30T03:35:56;101552.32;;;6.55;54.14
69219;BME280;56232;53.384;-2.732;2024-01-30T03:38:22;101555.94;;;5.94;54.38
69219;BME280;56232;53.384;-2.732;2024-01-30T03:40:47;101563.82;;;6.68;54.35
69219;BME280;56232;53.384;-2.732;2024-01-30T03:43:13;101561.81;;;6.05;54.25
69219;BME280;56232;53.384;-2.732;2024-01-30T03:45:40;101561.28;;;6.79;54.39
69219;BME280;56232;53.384;-2.732;2024-01-30T03:48:06;101562.44;;;6.34;54.03
69219;BME280;56232;53.384;-2.732;2024-01-30T03:50:30;101558.91;;;7.02;53.72
69219;BME280;56232;53.384;-2.732;2024-01-30T03:52:56;101565.47;;;6.21;53.98
69219;BME280;56232;53.384;-2.732;2024-01-30T03:55:22;101568.08;;;6.76;53.97
69219;BME280;56232;53.384;-2.732;2024-01-30T03:57:48;101574.60;;;5.70;53.98
69219;BME280;56232;53.384;-2.732;2024-01-30T04:00:14;101574.46;;;6.74;54.03
69219;BME280;56232;53.384;-2.732;2024-01-30T04:02:40;101578.58;;;6.17;54.10
69219;BME280;56232;53.384;-2.732;2024-01-30T04:05:05;101581.34;;;6.80;54.21
69219;BME280;56232;53.384;-2.732;2024-01-30T04:07:30;101581.65;;;6.22;54.16
69219;BME280;56232;53.384;-2.732;2024-01-30T04:09:56;101583.95;;;6.19;53.99
69219;BME280;56232;53.384;-2.732;2024-01-30T04:12:22;101591.40;;;6.28;54.09
69219;BME280;56232;53.384;-2.732;2024-01-30T04:14:47;101595.51;;;6.16;53.36
69219;BME280;56232;53.384;-2.732;2024-01-30T04:17:13;101605.87;;;6.51;53.88
69219;BME280;56232;53.384;-2.732;2024-01-30T04:19:40;101609.55;;;5.78;53.87
69219;BME280;56232;53.384;-2.732;2024-01-30T04:22:04;101610.42;;;5.80;53.84
69219;BME280;56232;53.384;-2.732;2024-01-30T04:24:30;101618.40;;;6.41;53.77
69219;BME280;56232;53.384;-2.732;2024-01-30T04:26:56;101621.25;;;6.37;53.95
69219;BME280;56232;53.384;-2.732;2024-01-30T04:29:22;101630.61;;;5.87;53.91
69219;BME280;56232;53.384;-2.732;2024-01-30T04:31:47;101636.45;;;5.82;53.58
69219;BME280;56232;53.384;-2.732;2024-01-30T04:34:13;101640.34;;;6.28;53.56
69219;BME280;56232;53.384;-2.732;2024-01-30T04:36:40;101644.70;;;6.00;53.55
69219;BME280;56232;53.384;-2.732;2024-01-30T04:39:04;101649.24;;;5.28;53.81
69219;BME280;56232;53.384;-2.732;2024-01-30T04:41:30;101658.11;;;5.92;53.74
69219;BME280;56232;53.384;-2.732;2024-01-30T04:43:56;101664.37;;;5.89;53.86
69219;BME280;56232;53.384;-2.732;2024-01-30T04:46:22;101666.64;;;5.92;53.93
69219;BME280;56232;53.384;-2.732;2024-01-30T04:48:47;101669.54;;;6.00;53.80
69219;BME280;56232;53.384;-2.732;2024-01-30T04:51:13;101673.86;;;5.84;53.89
69219;BME280;56232;53.384;-2.732;2024-01-30T04:53:40;101677.95;;;5.76;53.79
69219;BME280;56232;53.384;-2.732;2024-01-30T04:56:05;101687.07;;;5.67;53.93
69219;BME280;56232;53.384;-2.732;2024-01-30T04:58:30;101696.58;;;6.19;53.80
69219;BME280;56232;53.384;-2.732;2024-01-30T05:00:56;101702.90;;;5.56;53.97
69219;BME280;56232;53.384;-2.732;2024-01-30T05:03:22;101705.36;;;5.48;54.16
69219;BME280;56232;53.384;-2.732;2024-01-30T05:05:47;101714.16;;;6.61;54.07
69219;BME280;56232;53.384;-2.732;2024-01-30T05:08:13;101719.62;;;5.97;54.03
69219;BME280;56232;53.384;-2.732;2024-01-30T05:10:40;101726.59;;;5.75;54.12
69219;BME280;56232;53.384;-2.732;2024-01-30T05:13:05;101728.89;;;5.17;54.21
69219;BME280;56232;53.384;-2.732;2024-01-30T05:15:30;101739.66;;;5.18;54.15
69219;BME280;56232;53.384;-2.732;2024-01-30T05:17:56;101745.34;;;5.65;54.05
69219;BME280;56232;53.384;-2.732;2024-01-30T05:20:22;101752.64;;;5.10;53.94
69219;BME280;56232;53.384;-2.732;2024-01-30T05:22:47;101757.71;;;5.55;53.89
69219;BME280;56232;53.384;-2.732;2024-01-30T05:25:13;101759.50;;;5.99;53.93
69219;BME280;56232;53.384;-2.732;2024-01-30T05:27:40;101760.23;;;5.86;53.88
69219;BME280;56232;53.384;-2.732;2024-01-30T05:30:06;101765.58;;;5.65;54.35
69219;BME280;56232;53.384;-2.732;2024-01-30T05:32:30;101768.68;;;4.56;54.44
69219;BME280;56232;53.384;-2.732;2024-01-30T05:34:56;101773.76;;;5.70;54.48
69219;BME280;56232;53.384;-2.732;2024-01-30T05:37:22;101778.50;;;4.65;54.55
69219;BME280;56232;53.384;-2.732;2024-01-30T05:39:48;101786.07;;;5.87;54.44
69219;BME280;56232;53.384;-2.732;2024-01-30T05:42:13;101791.08;;;5.43;54.22
69219;BME280;56232;53.384;-2.732;2024-01-30T05:44:40;101797.39;;;5.01;54.19
69219;BME280;56232;53.384;-2.732;2024-01-30T05:47:05;101804.14;;;4.52;53.77
69219;BME280;56232;53.384;-2.732;2024-01-30T05:49:31;101808.12;;;5.07;53.58
69219;BME280;56232;53.384;-2.732;2024-01-30T05:51:56;101812.95;;;6.04;53.66
69219;BME280;56232;53.384;-2.732;2024-01-30T05:54:22;101818.08;;;4.92;53.75
69219;BME280;56232;53.384;-2.732;2024-01-30T05:56:48;101820.88;;;6.18;53.68
69219;BME280;56232;53.384;-2.732;2024-01-30T05:59:14;101833.55;;;5.75;53.65
69219;BME280;56232;53.384;-2.732;2024-01-30T06:01:46;101841.44;;;6.18;53.54
69219;BME280;56232;53.384;-2.732;2024-01-30T06:04:05;101846.08;;;5.15;53.37
69219;BME280;56232;53.384;-2.732;2024-01-30T06:06:30;101854.51;;;5.62;53.58
69219;BME280;56232;53.384;-2.732;2024-01-30T06:08:56;101860.23;;;5.57;53.53
69219;BME280;56232;53.384;-2.732;2024-01-30T06:11:22;101868.95;;;6.05;53.56
69219;BME280;56232;53.384;-2.732;2024-01-30T06:13:47;101868.64;;;5.01;53.87
69219;BME280;56232;53.384;-2.732;2024-01-30T06:16:13;101874.68;;;5.54;53.24
69219;BME280;56232;53.384;-2.732;2024-01-30T06:18:40;101878.70;;;5.37;53.50
69219;BME280;56232;53.384;-2.732;2024-01-30T06:21:05;101883.97;;;5.26;53.55
69219;BME280;56232;53.384;-2.732;2024-01-30T06:23:30;101889.36;;;4.69;53.63
69219;BME280;56232;53.384;-2.732;2024-01-30T06:25:56;101894.43;;;5.66;53.55
69219;BME280;56232;53.384;-2.732;2024-01-30T06:28:22;101898.06;;;4.47;53.78
69219;BME280;56232;53.384;-2.732;2024-01-30T06:30:48;101902.24;;;4.52;53.87
69219;BME280;56232;53.384;-2.732;2024-01-30T06:33:13;101905.43;;;5.77;53.86
69219;BME280;56232;53.384;-2.732;2024-01-30T06:35:41;101911.45;;;5.23;53.76
69219;BME280;56232;53.384;-2.732;2024-01-30T06:38:04;101916.94;;;5.32;53.63
69219;BME280;56232;53.384;-2.732;2024-01-30T06:40:29;101923.41;;;5.97;53.40
69219;BME280;56232;53.384;-2.732;2024-01-30T06:42:55;101933.49;;;4.85;53.57
69219;BME280;56232;53.384;-2.732;2024-01-30T06:45:20;101935.89;;;5.97;53.46
69219;BME280;56232;53.384;-2.732;2024-01-30T06:47:46;101945.13;;;5.26;53.42
69219;BME280;56232;53.384;-2.732;2024-01-30T06:50:12;101950.92;;;4.62;53.49
69219;BME280;56232;53.384;-2.732;2024-01-30T06:52:38;101960.15;;;4.56;53.73
69219;BME280;56232;53.384;-2.732;2024-01-30T06:55:04;101963.23;;;5.72;53.77
69219;BME280;56232;53.384;-2.732;2024-01-30T06:57:29;101975.04;;;5.19;53.54
69219;BME280;56232;53.384;-2.732;2024-01-30T06:59:55;101977.56;;;5.20;53.49
69219;BME280;56232;53.384;-2.732;2024-01-30T07:02:21;101981.13;;;5.73;53.43
69219;BME280;56232;53.384;-2.732;2024-01-30T07:04:46;101985.62;;;5.68;53.66
69219;BME280;56232;53.384;-2.732;2024-01-30T07:07:12;101991.92;;;5.65;53.56
69219;BME280;56232;53.384;-2.732;2024-01-30T07:09:39;101995.32;;;5.54;53.73
69219;BME280;56232;53.384;-2.732;2024-01-30T07:12:04;101999.37;;;4.46;53.52
69219;BME280;56232;53.384;-2.732;2024-01-30T07:14:29;102005.64;;;4.46;53.66
69219;BME280;56232;53.384;-2.732;2024-01-30T07:16:55;102006.44;;;5.09;53.71
69219;BME280;56232;53.384;-2.732;2024-01-30T07:19:21;102013.61;;;4.58;53.46
69219;BME280;56232;53.384;-2.732;2024-01-30T07:21:47;102017.16;;;5.67;53.40
69219;BME280;56232;53.384;-2.732;2024-01-30T07:24:12;102019.87;;;4.47;53.38
69219;BME280;56232;53.384;-2.732;2024-01-30T07:26:40;102028.07;;;5.47;53.41
69219;BME280;56232;53.384;-2.732;2024-01-30T07:29:04;102037.29;;;5.42;53.64
69219;BME280;56232;53.384;-2.732;2024-01-30T07:31:30;102044.47;;;5.45;53.56
69219;BME280;56232;53.384;-2.732;2024-01-30T07:33:55;102041.34;;;4.37;53.81
69219;BME280;56232;53.384;-2.732;2024-01-30T07:36:21;102049.93;;;5.57;53.75
69219;BME280;56232;53.384;-2.732;2024-01-30T07:38:47;102057.71;;;4.60;53.72
69219;BME280;56232;53.384;-2.732;2024-01-30T07:41:12;102062.89;;;4.66;53.49
69219;BME280;56232;53.384;-2.732;2024-01-30T07:43:38;102067.54;;;5.78;53.39
69219;BME280;56232;53.384;-2.732;2024-01-30T07:46:04;102073.21;;;5.81;53.55
69219;BME280;56232;53.384;-2.732;2024-01-30T07:48:29;102083.54;;;5.91;53.57
69219;BME280;56232;53.384;-2.732;2024-01-30T07:50:55;102090.10;;;4.88;53.47
69219;BME280;56232;53.384;-2.732;2024-01-30T07:53:21;102096.15;;;6.09;53.40
69219;BME280;56232;53.384;-2.732;2024-01-30T07:55:57;102101.10;;;5.01;53.04
69219;BME280;56232;53.384;-2.732;2024-01-30T07:58:12;102106.21;;;5.11;52.95
69219;BME280;56232;53.384;-2.732;2024-01-30T08:00:39;102110.30;;;5.58;52.99
69219;BME280;56232;53.384;-2.732;2024-01-30T08:03:04;102121.42;;;4.95;52.99
69219;BME280;56232;53.384;-2.732;2024-01-30T08:05:30;102129.17;;;4.83;53.33
69219;BME280;56232;53.384;-2.732;2024-01-30T08:07:55;102138.39;;;4.83;53.12
69219;BME280;56232;53.384;-2.732;2024-01-30T08:10:21;102149.99;;;5.36;52.83
69219;BME280;56232;53.384;-2.732;2024-01-30T08:12:47;102159.94;;;5.79;52.73
69219;BME280;56232;53.384;-2.732;2024-01-30T08:15:13;102165.02;;;4.49;53.14
69219;BME280;56232;53.384;-2.732;2024-01-30T08:17:39;102165.15;;;5.63;53.39
69219;BME280;56232;53.384;-2.732;2024-01-30T08:20:05;102171.99;;;5.08;53.34
69219;BME280;56232;53.384;-2.732;2024-01-30T08:22:30;102176.35;;;5.13;53.17
69219;BME280;56232;53.384;-2.732;2024-01-30T08:24:55;102179.69;;;5.58;53.18
69219;BME280;56232;53.384;-2.732;2024-01-30T08:27:21;102187.20;;;5.62;53.47
69219;BME280;56232;53.384;-2.732;2024-01-30T08:29:47;102188.52;;;5.00;53.18
69219;BME280;56232;53.384;-2.732;2024-01-30T08:32:13;102195.59;;;4.53;53.36
69219;BME280;56232;53.384;-2.732;2024-01-30T08:34:39;102203.49;;;4.73;53.19
69219;BME280;56232;53.384;-2.732;2024-01-30T08:37:04;102206.04;;;4.70;52.99
69219;BME280;56232;53.384;-2.732;2024-01-30T08:39:30;102209.72;;;4.72;53.20
69219;BME280;56232;53.384;-2.732;2024-01-30T08:41:56;102215.35;;;5.84;52.97
69219;BME280;56232;53.384;-2.732;2024-01-30T08:44:21;102220.62;;;4.78;53.18
69219;BME280;56232;53.384;-2.732;2024-01-30T08:46:47;102223.73;;;4.96;53.02
69219;BME280;56232;53.384;-2.732;2024-01-30T08:49:13;102233.48;;;5.47;53.20
69219;BME280;56232;53.384;-2.732;2024-01-30T08:51:39;102240.08;;;6.26;52.90
69219;BME280;56232;53.384;-2.732;2024-01-30T08:54:05;102249.35;;;6.25;52.86
69219;BME280;56232;53.384;-2.732;2024-01-30T08:56:30;102258.15;;;5.17;52.76
69219;BME280;56232;53.384;-2.732;2024-01-30T08:58:56;102266.93;;;5.48;52.93
69219;BME280;56232;53.384;-2.732;2024-01-30T09:01:22;102270.92;;;6.28;52.42
69219;BME280;56232;53.384;-2.732;2024-01-30T09:03:47;102277.72;;;6.16;52.80
69219;BME280;56232;53.384;-2.732;2024-01-30T09:06:13;102284.17;;;5.81;52.67
69219;BME280;56232;53.384;-2.732;2024-01-30T09:08:40;102292.28;;;6.03;52.84
69219;BME280;56232;53.384;-2.732;2024-01-30T09:11:08;102298.42;;;6.28;52.86
69219;BME280;56232;53.384;-2.732;2024-01-30T09:13:30;102307.28;;;6.42;52.29
69219;BME280;56232;53.384;-2.732;2024-01-30T09:15:56;102313.19;;;6.83;52.19
69219;BME280;56232;53.384;-2.732;2024-01-30T09:18:22;102327.03;;;6.69;52.29
69219;BME280;56232;53.384;-2.732;2024-01-30T09:20:47;102336.86;;;6.00;52.30
69219;BME280;56232;53.384;-2.732;2024-01-30T09:23:13;102334.83;;;6.44;52.25
69219;BME280;56232;53.384;-2.732;2024-01-30T09:25:40;102340.91;;;5.70;52.25
69219;BME280;56232;53.384;-2.732;2024-01-30T09:28:05;102344.89;;;5.70;52.52
69219;BME280;56232;53.384;-2.732;2024-01-30T09:30:30;102349.91;;;5.73;52.24
69219;BME280;56232;53.384;-2.732;2024-01-30T09:32:56;102350.87;;;6.51;52.52
69219;BME280;56232;53.384;-2.732;2024-01-30T09:35:22;102359.06;;;6.74;52.79
69219;BME280;56232;53.384;-2.732;2024-01-30T09:37:47;102361.54;;;6.89;52.65
69219;BME280;56232;53.384;-2.732;2024-01-30T09:40:13;102373.24;;;6.19;52.75
69219;BME280;56232;53.384;-2.732;2024-01-30T09:42:41;102374.29;;;6.72;52.43
69219;BME280;56232;53.384;-2.732;2024-01-30T09:45:05;102379.33;;;6.16;52.09
69219;BME280;56232;53.384;-2.732;2024-01-30T09:47:31;102388.34;;;5.96;52.38
69219;BME280;56232;53.384;-2.732;2024-01-30T09:49:56;102398.29;;;6.34;52.22
69219;BME280;56232;53.384;-2.732;2024-01-30T09:52:22;102400.28;;;6.42;52.51
69219;BME280;56232;53.384;-2.732;2024-01-30T09:54:49;102404.42;;;6.38;52.44
69219;BME280;56232;53.384;-2.732;2024-01-30T09:57:13;102410.85;;;5.83;52.93
69219;BME280;56232;53.384;-2.732;2024-01-30T09:59:41;102415.46;;;6.05;52.77
69219;BME280;56232;53.384;-2.732;2024-01-30T10:02:04;102412.06;;;5.94;52.51
69219;BME280;56232;53.384;-2.732;2024-01-30T10:04:30;102417.74;;;5.94;52.73
69219;BME280;56232;53.384;-2.732;2024-01-30T10:06:56;102422.10;;;5.95;51.91
69219;BME280;56232;53.384;-2.732;2024-01-30T10:09:21;102424.13;;;6.55;52.06
69219;BME280;56232;53.384;-2.732;2024-01-30T10:11:48;102430.65;;;6.02;52.55
69219;BME280;56232;53.384;-2.732;2024-01-30T10:14:13;102438.49;;;6.75;52.17
69219;BME280;56232;53.384;-2.732;2024-01-30T10:16:39;102439.15;;;6.85;52.69
69219;BME280;56232;53.384;-2.732;2024-01-30T10:19:04;102441.12;;;6.34;52.77
69219;BME280;56232;53.384;-2.732;2024-01-30T10:21:30;102443.95;;;6.43;51.97
69219;BME280;56232;53.384;-2.732;2024-01-30T10:23:56;102445.24;;;6.50;52.40
69219;BME280;56232;53.384;-2.732;2024-01-30T10:26:21;102446.46;;;6.68;52.73
69219;BME280;56232;53.384;-2.732;2024-01-30T10:28:48;102452.81;;;6.52;52.61
69219;BME280;56232;53.384;-2.732;2024-01-30T10:31:16;102455.71;;;7.24;52.48
69219;BME280;56232;53.384;-2.732;2024-01-30T10:33:39;102458.25;;;7.14;51.48
69219;BME280;56232;53.384;-2.732;2024-01-30T10:36:05;102455.69;;;7.48;51.87
69219;BME280;56232;53.384;-2.732;2024-01-30T10:38:31;102455.71;;;6.42;52.62
69219;BME280;56232;53.384;-2.732;2024-01-30T10:40:57;102461.33;;;6.68;52.72
69219;BME280;56232;53.384;-2.732;2024-01-30T10:43:22;102467.68;;;7.18;52.04
69219;BME280;56232;53.384;-2.732;2024-01-30T10:45:49;102478.28;;;6.89;51.77
69219;BME280;56232;53.384;-2.732;2024-01-30T10:48:13;102481.18;;;6.84;51.70
69219;BME280;56232;53.384;-2.732;2024-01-30T10:50:41;102482.00;;;6.22;51.55
69219;BME280;56232;53.384;-2.732;2024-01-30T10:53:05;102494.65;;;6.82;51.96
69219;BME280;56232;53.384;-2.732;2024-01-30T10:55:30;102498.24;;;7.69;51.70
69219;BME280;56232;53.384;-2.732;2024-01-30T10:57:56;102499.94;;;6.79;51.65
69219;BME280;56232;53.384;-2.732;2024-01-30T11:00:22;102505.25;;;7.13;51.70
69219;BME280;56232;53.384;-2.732;2024-01-30T11:02:47;102500.18;;;7.00;52.09
69219;BME280;56232;53.384;-2.732;2024-01-30T11:05:13;102502.01;;;6.50;51.72
69219;BME280;56232;53.384;-2.732;2024-01-30T11:07:39;102504.50;;;6.76;51.70
69219;BME280;56232;53.384;-2.732;2024-01-30T11:10:05;102511.08;;;7.39;51.78
69219;BME280;56232;53.384;-2.732;2024-01-30T11:12:31;102515.05;;;6.85;51.94
69219;BME280;56232;53.384;-2.732;2024-01-30T11:15:02;102523.84;;;6.60;51.61
69219;BME280;56232;53.384;-2.732;2024-01-30T11:17:21;102526.87;;;6.40;51.86
69219;BME280;56232;53.384;-2.732;2024-01-30T11:19:47;102530.24;;;6.23;52.56
69219;BME280;56232;53.384;-2.732;2024-01-30T11:22:13;102535.94;;;7.09;52.44
69219;BME280;56232;53.384;-2.732;2024-01-30T11:24:40;102539.84;;;6.92;52.29
69219;BME280;56232;53.384;-2.732;2024-01-30T11:27:08;102544.85;;;6.89;51.94
69219;BME280;56232;53.384;-2.732;2024-01-30T11:29:30;102547.59;;;7.11;51.61
69219;BME280;56232;53.384;-2.732;2024-01-30T11:31:57;102554.85;;;7.44;51.61
69219;BME280;56232;53.384;-2.732;2024-01-30T11:34:21;102554.40;;;7.68;52.19
69219;BME280;56232;53.384;-2.732;2024-01-30T11:36:52;102554.86;;;8.04;52.12
69219;BME280;56232;53.384;-2.732;2024-01-30T11:39:13;102565.66;;;7.41;51.86
69219;BME280;56232;53.384;-2.732;2024-01-30T11:41:40;102562.36;;;8.64;52.23
69219;BME280;56232;53.384;-2.732;2024-01-30T11:44:04;102563.78;;;8.62;52.16
69219;BME280;56232;53.384;-2.732;2024-01-30T11:46:30;102567.73;;;7.69;51.67
69219;BME280;56232;53.384;-2.732;2024-01-30T11:48:55;102568.82;;;8.59;51.98
69219;BME280;56232;53.384;-2.732;2024-01-30T11:51:21;102561.29;;;8.51;51.47
69219;BME280;56232;53.384;-2.732;2024-01-30T11:53:49;102559.77;;;8.47;51.58
69219;BME280;56232;53.384;-2.732;2024-01-30T11:56:12;102556.41;;;7.90;51.17
69219;BME280;56232;53.384;-2.732;2024-01-30T11:58:42;102559.34;;;8.99;51.42
69219;BME280;56232;53.384;-2.732;2024-01-30T12:01:04;102559.10;;;8.55;51.58
69219;BME280;56232;53.384;-2.732;2024-01-30T12:03:30;102551.52;;;8.57;51.65
69219;BME280;56232;53.384;-2.732;2024-01-30T12:05:56;102555.49;;;8.08;51.48
69219;BME280;56232;53.384;-2.732;2024-01-30T12:08:21;102561.31;;;8.86;51.61
69219;BME280;56232;53.384;-2.732;2024-01-30T12:10:55;102560.69;;;8.45;51.57
69219;BME280;56232;53.384;-2.732;2024-01-30T12:13:12;102559.22;;;8.52;51.37
69219;BME280;56232;53.384;-2.732;2024-01-30T12:15:38;102563.66;;;8.93;51.81
69219;BME280;56232;53.384;-2.732;2024-01-30T12:18:04;102567.76;;;8.38;51.68
69219;BME280;56232;53.384;-2.732;2024-01-30T12:20:29;102568.52;;;8.23;51.62
69219;BME280;56232;53.384;-2.732;2024-01-30T12:22:55;102581.61;;;8.00;51.50
69219;BME280;56232;53.384;-2.732;2024-01-30T12:25:21;102591.09;;;7.57;51.88
69219;BME280;56232;53.384;-2.732;2024-01-30T12:27:48;102585.40;;;8.01;51.73
69219;BME280;56232;53.384;-2.732;2024-01-30T12:30:13;102585.41;;;8.37;52.11
69219;BME280;56232;53.384;-2.732;2024-01-30T12:32:40;102586.04;;;7.29;51.96
69219;BME280;56232;53.384;-2.732;2024-01-30T12:35:07;102585.40;;;7.28;52.53
69219;BME280;56232;53.384;-2.732;2024-01-30T12:37:30;102586.36;;;7.29;51.93
69219;BME280;56232;53.384;-2.732;2024-01-30T12:39:55;102586.68;;;7.84;52.39
69219;BME280;56232;53.384;-2.732;2024-01-30T12:42:21;102584.15;;;8.35;52.65